sensor_id;sensor_type;location;lat;lon;timestamp;pressure;altitude;pressure_sealevel;temperature;humidity
23241;BME280;11789;53.482;9.862;2023-05-07T00:01:01;102194.78;;;7.77;100.00
23241;BME280;11789;53.482;9.862;2023-05-07T00:03:27;102205.25;;;7.82;100.00
23241;BME280;11789;53.482;9.862;2023-05-07T00:05:53;102205.12;;;7.79;100.00
23241;BME280;11789;53.482;9.862;2023-05-07T00:08:18;102205.09;;;7.77;100.00
23241;BME280;11789;53.482;9.862;2023-05-07T00:10:44;102208.53;;;7.78;100.00
23241;BME280;11789;53.482;9.862;2023-05-07T00:13:10;102199.16;;;7.80;100.00
23241;BME280;11789;53.482;9.862;2023-05-07T00:15:35;102201.81;;;7.82;100.00
23241;BME280;11789;53.482;9.862;2023-05-07T00:18:01;102200.09;;;7.82;100.00
23241;BME280;11789;53.482;9.862;2023-05-07T00:20:26;102202.66;;;7.82;100.00
23241;BME280;11789;53.482;9.862;2023-05-07T00:22:52;102195.81;;;7.83;100.00
23241;BME280;11789;53.482;9.862;2023-05-07T00:25:18;102201.81;;;7.82;100.00
23241;BME280;11789;53.482;9.862;2023-05-07T00:27:44;102203.53;;;7.83;100.00
23241;BME280;11789;53.482;9.862;2023-05-07T00:30:10;102201.88;;;7.85;100.00
23241;BME280;11789;53.482;9.862;2023-05-07T00:32:36;102201.00;;;7.84;100.00
23241;BME280;11789;53.482;9.862;2023-05-07T00:35:03;102199.22;;;7.82;100.00
23241;BME280;11789;53.482;9.862;2023-05-07T00:37:28;102196.72;;;7.85;100.00
23241;BME280;11789;53.482;9.862;2023-05-07T00:39:54;102195.84;;;7.84;100.00
23241;BME280;11789;53.482;9.862;2023-05-07T00:42:19;102192.44;;;7.85;100.00
23241;BME280;11789;53.482;9.862;2023-05-07T00:44:45;102186.37;;;7.83;100.00
23241;BME280;11789;53.482;9.862;2023-05-07T00:47:11;102183.81;;;7.83;100.00
23241;BME280;11789;53.482;9.862;2023-05-07T00:49:44;102182.94;;;7.83;100.00
23241;BME280;11789;53.482;9.862;2023-05-07T00:52:13;102181.25;;;7.83;100.00
23241;BME280;11789;53.482;9.862;2023-05-07T00:54:40;102177.84;;;7.84;100.00
23241;BME280;11789;53.482;9.862;2023-05-07T00:57:06;102181.19;;;7.82;100.00
23241;BME280;11789;53.482;9.862;2023-05-07T00:59:32;102176.13;;;7.85;100.00
23241;BME280;11789;53.482;9.862;2023-05-07T01:01:58;102182.97;;;7.84;100.00
23241;BME280;11789;53.482;9.862;2023-05-07T01:04:24;102169.19;;;7.82;100.00
23241;BME280;11789;53.482;9.862;2023-05-07T01:06:50;102172.59;;;7.81;100.00
23241;BME280;11789;53.482;9.862;2023-05-07T01:09:17;102175.97;;;7.80;100.00
23241;BME280;11789;53.482;9.862;2023-05-07T01:11:46;102174.19;;;7.77;100.00
23241;BME280;11789;53.482;9.862;2023-05-07T01:14:12;102181.94;;;7.77;100.00
23241;BME280;11789;53.482;9.862;2023-05-07T01:16:37;102172.47;;;7.76;100.00
23241;BME280;11789;53.482;9.862;2023-05-07T01:19:04;102172.34;;;7.73;100.00
23241;BME280;11789;53.482;9.862;2023-05-07T01:21:32;102169.81;;;7.75;100.00
23241;BME280;11789;53.482;9.862;2023-05-07T01:23:58;102168.94;;;7.74;100.00
23241;BME280;11789;53.482;9.862;2023-05-07T01:26:24;102172.66;;;7.83;100.00
23241;BME280;11789;53.482;9.862;2023-05-07T01:28:49;102169.94;;;7.78;100.00
23241;BME280;11789;53.482;9.862;2023-05-07T01:31:16;102168.19;;;7.77;100.00
23241;BME280;11789;53.482;9.862;2023-05-07T01:33:44;102172.47;;;7.76;100.00
23241;BME280;11789;53.482;9.862;2023-05-07T01:36:11;102168.19;;;7.77;100.00
23241;BME280;11789;53.482;9.862;2023-05-07T01:38:39;102171.63;;;7.77;100.00
23241;BME280;11789;53.482;9.862;2023-05-07T01:41:06;102174.19;;;7.77;100.00
23241;BME280;11789;53.482;9.862;2023-05-07T01:43:32;102166.44;;;7.76;100.00
23241;BME280;11789;53.482;9.862;2023-05-07T01:45:58;102163.03;;;7.77;100.00
23241;BME280;11789;53.482;9.862;2023-05-07T01:48:26;102175.06;;;7.78;100.00
23241;BME280;11789;53.482;9.862;2023-05-07T01:50:52;102164.75;;;7.76;100.00
23241;BME280;11789;53.482;9.862;2023-05-07T01:53:18;102181.97;;;7.79;100.00
23241;BME280;11789;53.482;9.862;2023-05-07T01:55:43;102181.19;;;7.82;100.00
23241;BME280;11789;53.482;9.862;2023-05-07T01:58:08;102171.66;;;7.79;100.00
23241;BME280;11789;53.482;9.862;2023-05-07T02:00:34;102177.75;;;7.81;100.00
23241;BME280;11789;53.482;9.862;2023-05-07T02:02:59;102184.53;;;7.79;100.00
23241;BME280;11789;53.482;9.862;2023-05-07T02:05:25;102190.53;;;7.78;100.00
23241;BME280;11789;53.482;9.862;2023-05-07T02:07:50;102187.94;;;7.78;100.00
23241;BME280;11789;53.482;9.862;2023-05-07T02:10:16;102192.25;;;7.79;100.00
23241;BME280;11789;53.482;9.862;2023-05-07T02:12:41;102187.97;;;7.79;100.00
23241;BME280;11789;53.482;9.862;2023-05-07T02:15:08;102190.66;;;7.83;100.00
23241;BME280;11789;53.482;9.862;2023-05-07T02:17:33;102207.03;;;7.85;100.00
23241;BME280;11789;53.482;9.862;2023-05-07T02:19:59;102206.16;;;7.84;100.00
23241;BME280;11789;53.482;9.862;2023-05-07T02:22:25;102211.31;;;7.84;100.00
23241;BME280;11789;53.482;9.862;2023-05-07T02:24:51;102207.81;;;7.82;100.00
23241;BME280;11789;53.482;9.862;2023-05-07T02:27:16;102218.19;;;7.85;100.00
23241;BME280;11789;53.482;9.862;2023-05-07T02:29:41;102209.59;;;7.85;100.00
23241;BME280;11789;53.482;9.862;2023-05-07T02:32:07;102214.00;;;7.87;100.00
23241;BME280;11789;53.482;9.862;2023-05-07T02:34:32;102202.75;;;7.85;100.00
23241;BME280;11789;53.482;9.862;2023-05-07T02:36:58;102195.84;;;7.84;100.00
23241;BME280;11789;53.482;9.862;2023-05-07T02:39:23;102195.00;;;7.84;100.00
23241;BME280;11789;53.482;9.862;2023-05-07T02:41:49;102207.91;;;7.85;100.00
23241;BME280;11789;53.482;9.862;2023-05-07T02:44:14;102207.81;;;7.82;100.00
23241;BME280;11789;53.482;9.862;2023-05-07T02:46:40;102194.84;;;7.79;100.00
23241;BME280;11789;53.482;9.862;2023-05-07T02:49:05;102206.78;;;7.77;100.00
23241;BME280;11789;53.482;9.862;2023-05-07T02:51:31;102205.12;;;7.79;100.00
23241;BME280;11789;53.482;9.862;2023-05-07T02:53:56;102220.56;;;7.79;100.00
23241;BME280;11789;53.482;9.862;2023-05-07T02:56:22;102211.97;;;7.78;100.00
23241;BME280;11789;53.482;9.862;2023-05-07T02:58:47;102222.41;;;7.82;100.00
23241;BME280;11789;53.482;9.862;2023-05-07T03:01:13;102211.06;;;7.76;100.00
23241;BME280;11789;53.482;9.862;2023-05-07T03:03:39;102219.59;;;7.75;100.00
23241;BME280;11789;53.482;9.862;2023-05-07T03:06:05;102226.44;;;7.75;100.00
23241;BME280;11789;53.482;9.862;2023-05-07T03:08:30;102219.59;;;7.75;100.00
23241;BME280;11789;53.482;9.862;2023-05-07T03:10:56;102221.41;;;7.78;100.00
23241;BME280;11789;53.482;9.862;2023-05-07T03:13:21;102227.41;;;7.77;100.00
23241;BME280;11789;53.482;9.862;2023-05-07T03:15:47;102215.38;;;7.77;100.00
23241;BME280;11789;53.482;9.862;2023-05-07T03:18:12;102218.72;;;7.75;100.00
23241;BME280;11789;53.482;9.862;2023-05-07T03:20:38;102225.56;;;7.74;100.00
23241;BME280;11789;53.482;9.862;2023-05-07T03:23:03;102218.72;;;7.75;100.00
23241;BME280;11789;53.482;9.862;2023-05-07T03:25:30;102210.94;;;7.72;100.00
23241;BME280;11789;53.482;9.862;2023-05-07T03:27:56;102209.25;;;7.74;100.00
23241;BME280;11789;53.482;9.862;2023-05-07T03:30:22;102216.16;;;7.75;100.00
23241;BME280;11789;53.482;9.862;2023-05-07T03:32:47;102213.56;;;7.75;100.00
23241;BME280;11789;53.482;9.862;2023-05-07T03:35:13;102216.16;;;7.75;100.00
23241;BME280;11789;53.482;9.862;2023-05-07T03:37:39;102212.78;;;7.76;100.00
23241;BME280;11789;53.482;9.862;2023-05-07T03:40:05;102206.69;;;7.74;100.00
23241;BME280;11789;53.482;9.862;2023-05-07T03:42:31;102207.50;;;7.73;100.00
23241;BME280;11789;53.482;9.862;2023-05-07T03:44:57;102208.44;;;7.75;100.00
23241;BME280;11789;53.482;9.862;2023-05-07T03:47:22;102213.50;;;7.72;100.00
23241;BME280;11789;53.482;9.862;2023-05-07T03:49:48;102206.59;;;7.71;100.00
23241;BME280;11789;53.482;9.862;2023-05-07T03:52:14;102214.25;;;7.69;100.00
23241;BME280;11789;53.482;9.862;2023-05-07T03:54:40;102222.09;;;7.72;100.00
23241;BME280;11789;53.482;9.862;2023-05-07T03:57:05;102222.97;;;7.73;100.00
23241;BME280;11789;53.482;9.862;2023-05-07T03:59:31;102229.78;;;7.71;100.00
23241;BME280;11789;53.482;9.862;2023-05-07T04:01:56;102227.13;;;7.69;100.00
23241;BME280;11789;53.482;9.862;2023-05-07T04:04:22;102231.50;;;7.72;100.00
23241;BME280;11789;53.482;9.862;2023-05-07T04:06:47;102224.62;;;7.71;100.00
23241;BME280;11789;53.482;9.862;2023-05-07T04:09:12;102227.19;;;7.71;100.00
23241;BME280;11789;53.482;9.862;2023-05-07T04:11:38;102222.12;;;7.74;100.00
23241;BME280;11789;53.482;9.862;2023-05-07T04:14:05;102223.84;;;7.73;100.00
23241;BME280;11789;53.482;9.862;2023-05-07T04:16:31;102225.56;;;7.74;100.00
23241;BME280;11789;53.482;9.862;2023-05-07T04:18:57;102228.25;;;7.77;100.00
23241;BME280;11789;53.482;9.862;2023-05-07T04:21:22;102229.84;;;7.74;100.00
23241;BME280;11789;53.482;9.862;2023-05-07T04:23:48;102225.53;;;7.73;100.00
23241;BME280;11789;53.482;9.862;2023-05-07T04:26:14;102222.97;;;7.73;100.00
23241;BME280;11789;53.482;9.862;2023-05-07T04:28:40;102223.84;;;7.73;100.00
23241;BME280;11789;53.482;9.862;2023-05-07T04:31:06;102232.53;;;7.77;100.00
23241;BME280;11789;53.482;9.862;2023-05-07T04:33:32;102226.69;;;7.81;100.00
23241;BME280;11789;53.482;9.862;2023-05-07T04:35:58;102228.31;;;7.79;100.00
23241;BME280;11789;53.482;9.862;2023-05-07T04:38:29;102231.72;;;7.78;100.00
23241;BME280;11789;53.482;9.862;2023-05-07T04:40:55;102220.56;;;7.79;100.00
23241;BME280;11789;53.482;9.862;2023-05-07T04:43:21;102223.28;;;7.82;100.00
23241;BME280;11789;53.482;9.862;2023-05-07T04:45:46;102216.47;;;7.84;100.00
23241;BME280;11789;53.482;9.862;2023-05-07T04:48:12;102213.94;;;7.86;100.00
23241;BME280;11789;53.482;9.862;2023-05-07T04:50:39;102223.47;;;7.88;100.00
23241;BME280;11789;53.482;9.862;2023-05-07T04:53:05;102224.28;;;7.87;100.00
23241;BME280;11789;53.482;9.862;2023-05-07T04:55:30;102234.75;;;7.92;100.00
23241;BME280;11789;53.482;9.862;2023-05-07T04:57:56;102231.28;;;7.91;100.00
23241;BME280;11789;53.482;9.862;2023-05-07T05:00:21;102233.00;;;7.91;100.00
23241;BME280;11789;53.482;9.862;2023-05-07T05:02:48;102235.56;;;7.91;100.00
23241;BME280;11789;53.482;9.862;2023-05-07T05:05:13;102239.06;;;7.93;100.00
23241;BME280;11789;53.482;9.862;2023-05-07T05:07:39;102238.25;;;7.95;100.00
23241;BME280;11789;53.482;9.862;2023-05-07T05:10:05;102242.50;;;7.93;100.00
23241;BME280;11789;53.482;9.862;2023-05-07T05:12:33;102242.50;;;7.93;100.00
23241;BME280;11789;53.482;9.862;2023-05-07T05:14:59;102241.62;;;7.93;100.00
23241;BME280;11789;53.482;9.862;2023-05-07T05:17:24;102237.34;;;7.93;100.00
23241;BME280;11789;53.482;9.862;2023-05-07T05:19:50;102246.81;;;7.94;100.00
23241;BME280;11789;53.482;9.862;2023-05-07T05:22:16;102237.47;;;7.96;100.00
23241;BME280;11789;53.482;9.862;2023-05-07T05:24:41;102246.81;;;7.94;100.00
23241;BME280;11789;53.482;9.862;2023-05-07T05:27:06;102245.06;;;7.93;100.00
23241;BME280;11789;53.482;9.862;2023-05-07T05:29:32;102245.03;;;7.92;100.00
23241;BME280;11789;53.482;9.862;2023-05-07T05:31:57;102243.37;;;7.94;100.00
23241;BME280;11789;53.482;9.862;2023-05-07T05:34:23;102265.78;;;7.96;100.00
23241;BME280;11789;53.482;9.862;2023-05-07T05:36:48;102247.81;;;7.98;100.00
23241;BME280;11789;53.482;9.862;2023-05-07T05:39:14;102261.56;;;7.98;100.00
23241;BME280;11789;53.482;9.862;2023-05-07T05:41:39;102260.63;;;7.96;100.00
23241;BME280;11789;53.482;9.862;2023-05-07T05:44:05;102275.25;;;7.97;100.00
23241;BME280;11789;53.482;9.862;2023-05-07T05:46:30;102266.69;;;7.98;100.00
23241;BME280;11789;53.482;9.862;2023-05-07T05:48:56;102277.91;;;8.00;100.00
23241;BME280;11789;53.482;9.862;2023-05-07T05:51:22;102265.97;;;8.02;100.00
23241;BME280;11789;53.482;9.862;2023-05-07T05:53:48;102272.84;;;8.02;100.00
23241;BME280;11789;53.482;9.862;2023-05-07T05:56:14;102273.66;;;8.01;100.00
23241;BME280;11789;53.482;9.862;2023-05-07T05:58:40;102272.00;;;8.03;100.00
23241;BME280;11789;53.482;9.862;2023-05-07T06:01:07;102285.00;;;8.06;100.00
23241;BME280;11789;53.482;9.862;2023-05-07T06:03:33;102280.72;;;8.06;100.00
23241;BME280;11789;53.482;9.862;2023-05-07T06:05:58;102288.47;;;8.08;100.00
23241;BME280;11789;53.482;9.862;2023-05-07T06:08:25;102288.59;;;8.11;100.00
23241;BME280;11789;53.482;9.862;2023-05-07T06:10:51;102287.59;;;8.07;100.00
23241;BME280;11789;53.482;9.862;2023-05-07T06:13:16;102288.53;;;8.10;100.00
23241;BME280;11789;53.482;9.862;2023-05-07T06:15:42;102292.84;;;8.11;100.00
23241;BME280;11789;53.482;9.862;2023-05-07T06:18:07;102286.06;;;8.13;100.00
23241;BME280;11789;53.482;9.862;2023-05-07T06:20:33;102286.09;;;8.14;100.00
23241;BME280;11789;53.482;9.862;2023-05-07T06:22:58;102288.78;;;8.17;100.00
23241;BME280;11789;53.482;9.862;2023-05-07T06:25:24;102288.84;;;8.20;100.00
23241;BME280;11789;53.482;9.862;2023-05-07T06:27:49;102285.53;;;8.23;100.00
23241;BME280;11789;53.482;9.862;2023-05-07T06:30:15;102283.97;;;8.28;100.00
23241;BME280;11789;53.482;9.862;2023-05-07T06:32:47;102286.53;;;8.28;100.00
23241;BME280;11789;53.482;9.862;2023-05-07T06:35:12;102288.41;;;8.32;100.00
23241;BME280;11789;53.482;9.862;2023-05-07T06:37:38;102290.91;;;8.30;100.00
23241;BME280;11789;53.482;9.862;2023-05-07T06:40:06;102292.75;;;8.35;100.00
23241;BME280;11789;53.482;9.862;2023-05-07T06:42:32;102291.00;;;8.33;100.00
23241;BME280;11789;53.482;9.862;2023-05-07T06:44:57;102284.13;;;8.32;100.00
23241;BME280;11789;53.482;9.862;2023-05-07T06:47:23;102290.19;;;8.35;100.00
23241;BME280;11789;53.482;9.862;2023-05-07T06:49:48;102288.59;;;8.38;100.00
23241;BME280;11789;53.482;9.862;2023-05-07T06:52:14;102293.03;;;8.42;100.00
23241;BME280;11789;53.482;9.862;2023-05-07T06:54:39;102294.84;;;8.46;100.00
23241;BME280;11789;53.482;9.862;2023-05-07T06:57:05;102288.78;;;8.44;100.00
23241;BME280;11789;53.482;9.862;2023-05-07T06:59:30;102289.78;;;8.48;100.00
23241;BME280;11789;53.482;9.862;2023-05-07T07:01:56;102292.53;;;8.54;100.00
23241;BME280;11789;53.482;9.862;2023-05-07T07:04:21;102300.38;;;8.57;100.00
23241;BME280;11789;53.482;9.862;2023-05-07T07:06:48;102293.53;;;8.59;100.00
23241;BME280;11789;53.482;9.862;2023-05-07T07:09:13;102290.22;;;8.63;100.00
23241;BME280;11789;53.482;9.862;2023-05-07T07:11:39;102296.22;;;8.62;100.00
23241;BME280;11789;53.482;9.862;2023-05-07T07:14:05;102296.25;;;8.64;100.00
23241;BME280;11789;53.482;9.862;2023-05-07T07:16:30;102295.47;;;8.66;100.00
23241;BME280;11789;53.482;9.862;2023-05-07T07:18:59;102299.06;;;8.71;100.00
23241;BME280;11789;53.482;9.862;2023-05-07T07:21:25;102303.44;;;8.74;100.00
23241;BME280;11789;53.482;9.862;2023-05-07T07:23:50;102293.97;;;8.73;100.00
23241;BME280;11789;53.482;9.862;2023-05-07T07:26:17;102284.56;;;8.75;100.00
23241;BME280;11789;53.482;9.862;2023-05-07T07:28:44;102289.84;;;8.79;100.00
23241;BME280;11789;53.482;9.862;2023-05-07T07:31:09;102288.16;;;8.80;100.00
23241;BME280;11789;53.482;9.862;2023-05-07T07:33:35;102288.16;;;8.80;100.00
23241;BME280;11789;53.482;9.862;2023-05-07T07:36:00;102290.09;;;8.87;100.00
23241;BME280;11789;53.482;9.862;2023-05-07T07:38:25;102294.47;;;8.91;100.00
23241;BME280;11789;53.482;9.862;2023-05-07T07:40:51;102282.47;;;8.92;100.00
23241;BME280;11789;53.482;9.862;2023-05-07T07:43:16;102288.69;;;8.98;100.00
23241;BME280;11789;53.482;9.862;2023-05-07T07:45:42;102293.03;;;9.01;100.00
23241;BME280;11789;53.482;9.862;2023-05-07T07:48:10;102294.78;;;9.02;100.00
23241;BME280;11789;53.482;9.862;2023-05-07T07:50:36;102293.88;;;9.00;100.00
23241;BME280;11789;53.482;9.862;2023-05-07T07:53:01;102293.12;;;9.02;100.00
23241;BME280;11789;53.482;9.862;2023-05-07T07:55:27;102300.84;;;9.02;100.00
23241;BME280;11789;53.482;9.862;2023-05-07T07:57:53;102298.37;;;9.07;100.00
23241;BME280;11789;53.482;9.862;2023-05-07T08:00:18;102303.66;;;9.12;99.69
23241;BME280;11789;53.482;9.862;2023-05-07T08:02:43;102314.84;;;9.12;99.40
23241;BME280;11789;53.482;9.862;2023-05-07T08:05:09;102317.56;;;9.17;98.82
23241;BME280;11789;53.482;9.862;2023-05-07T08:07:34;102320.16;;;9.17;98.50
23241;BME280;11789;53.482;9.862;2023-05-07T08:10:00;102308.94;;;9.15;98.41
23241;BME280;11789;53.482;9.862;2023-05-07T08:12:25;102302.09;;;9.17;98.71
23241;BME280;11789;53.482;9.862;2023-05-07T08:14:51;102307.47;;;9.24;98.13
23241;BME280;11789;53.482;9.862;2023-05-07T08:17:16;102319.50;;;9.24;97.22
23241;BME280;11789;53.482;9.862;2023-05-07T08:19:42;102323.94;;;9.28;97.40
23241;BME280;11789;53.482;9.862;2023-05-07T08:22:09;102313.62;;;9.29;96.92
23241;BME280;11789;53.482;9.862;2023-05-07T08:24:34;102313.72;;;9.32;97.17
23241;BME280;11789;53.482;9.862;2023-05-07T08:27:00;102314.72;;;9.38;97.44
23241;BME280;11789;53.482;9.862;2023-05-07T08:29:25;102314.03;;;9.43;97.63
23241;BME280;11789;53.482;9.862;2023-05-07T08:31:51;102319.22;;;9.45;97.61
23241;BME280;11789;53.482;9.862;2023-05-07T08:34:16;102310.59;;;9.44;97.71
23241;BME280;11789;53.482;9.862;2023-05-07T08:36:42;102326.13;;;9.46;97.92
23241;BME280;11789;53.482;9.862;2023-05-07T08:39:07;102315.84;;;9.47;97.77
23241;BME280;11789;53.482;9.862;2023-05-07T08:41:34;102321.19;;;9.53;99.27
23241;BME280;11789;53.482;9.862;2023-05-07T08:44:02;102328.97;;;9.55;97.87
23241;BME280;11789;53.482;9.862;2023-05-07T08:46:31;102339.28;;;9.55;96.40
23241;BME280;11789;53.482;9.862;2023-05-07T08:48:57;102340.84;;;9.48;96.16
23241;BME280;11789;53.482;9.862;2023-05-07T08:51:24;102330.56;;;9.50;97.00
23241;BME280;11789;53.482;9.862;2023-05-07T08:53:51;102338.59;;;9.60;97.26
23241;BME280;11789;53.482;9.862;2023-05-07T08:56:17;102345.75;;;9.71;95.50
23241;BME280;11789;53.482;9.862;2023-05-07T08:58:43;102331.09;;;9.70;93.26
23241;BME280;11789;53.482;9.862;2023-05-07T09:01:13;102331.09;;;9.70;92.84
23241;BME280;11789;53.482;9.862;2023-05-07T09:03:40;102330.34;;;9.74;93.92
23241;BME280;11789;53.482;9.862;2023-05-07T09:06:06;102336.50;;;9.79;94.03
23241;BME280;11789;53.482;9.862;2023-05-07T09:08:33;102336.66;;;9.85;94.53
23241;BME280;11789;53.482;9.862;2023-05-07T09:10:59;102340.97;;;9.86;94.65
23241;BME280;11789;53.482;9.862;2023-05-07T09:13:27;102343.47;;;9.83;94.70
23241;BME280;11789;53.482;9.862;2023-05-07T09:15:55;102334.06;;;9.85;95.28
23241;BME280;11789;53.482;9.862;2023-05-07T09:18:21;102346.25;;;9.91;96.01
23241;BME280;11789;53.482;9.862;2023-05-07T09:20:48;102348.75;;;9.87;94.11
23241;BME280;11789;53.482;9.862;2023-05-07T09:23:14;102345.19;;;9.82;93.82
23241;BME280;11789;53.482;9.862;2023-05-07T09:25:39;102343.53;;;9.84;94.80
23241;BME280;11789;53.482;9.862;2023-05-07T09:28:05;102350.53;;;9.88;94.82
23241;BME280;11789;53.482;9.862;2023-05-07T09:30:33;102352.28;;;9.90;94.07
23241;BME280;11789;53.482;9.862;2023-05-07T09:33:01;102343.59;;;9.87;94.47
23241;BME280;11789;53.482;9.862;2023-05-07T09:35:27;102349.63;;;9.88;94.94
23241;BME280;11789;53.482;9.862;2023-05-07T09:37:58;102344.56;;;9.93;95.14
23241;BME280;11789;53.482;9.862;2023-05-07T09:40:25;102356.78;;;9.98;95.47
23241;BME280;11789;53.482;9.862;2023-05-07T09:42:51;102350.91;;;10.04;94.06
23241;BME280;11789;53.482;9.862;2023-05-07T09:45:27;102357.88;;;10.08;94.14
23241;BME280;11789;53.482;9.862;2023-05-07T09:47:55;102350.09;;;10.06;93.62
23241;BME280;11789;53.482;9.862;2023-05-07T09:50:29;102355.31;;;10.08;94.34
23241;BME280;11789;53.482;9.862;2023-05-07T09:52:57;102347.44;;;10.03;93.05
23241;BME280;11789;53.482;9.862;2023-05-07T09:55:23;102349.19;;;10.04;93.58
23241;BME280;11789;53.482;9.862;2023-05-07T09:57:53;102355.41;;;10.12;93.63
23241;BME280;11789;53.482;9.862;2023-05-07T10:00:20;102350.50;;;10.23;94.03
23241;BME280;11789;53.482;9.862;2023-05-07T10:02:48;102348.13;;;10.29;92.30
23241;BME280;11789;53.482;9.862;2023-05-07T10:05:14;102354.19;;;10.30;91.30
23241;BME280;11789;53.482;9.862;2023-05-07T10:07:41;102355.03;;;10.30;91.98
23241;BME280;11789;53.482;9.862;2023-05-07T10:10:08;102355.87;;;10.29;92.06
23241;BME280;11789;53.482;9.862;2023-05-07T10:12:35;102356.81;;;10.33;92.32
23241;BME280;11789;53.482;9.862;2023-05-07T10:15:14;102349.03;;;10.31;91.98
23241;BME280;11789;53.482;9.862;2023-05-07T10:17:40;102350.00;;;10.35;92.37
23241;BME280;11789;53.482;9.862;2023-05-07T10:20:07;102352.72;;;10.41;92.38
23241;BME280;11789;53.482;9.862;2023-05-07T10:22:52;102357.91;;;10.43;91.53
23241;BME280;11789;53.482;9.862;2023-05-07T10:25:26;102355.19;;;10.36;90.83
23241;BME280;11789;53.482;9.862;2023-05-07T10:27:59;102358.72;;;10.40;91.57
23241;BME280;11789;53.482;9.862;2023-05-07T10:30:40;102355.41;;;10.46;90.89
23241;BME280;11789;53.482;9.862;2023-05-07T10:33:13;102356.38;;;10.49;90.97
23241;BME280;11789;53.482;9.862;2023-05-07T10:35:44;102353.00;;;10.53;89.88
23241;BME280;11789;53.482;9.862;2023-05-07T10:38:10;102361.69;;;10.57;89.90
23241;BME280;11789;53.482;9.862;2023-05-07T10:40:36;102356.53;;;10.57;89.09
23241;BME280;11789;53.482;9.862;2023-05-07T10:43:03;102346.41;;;10.66;90.26
23241;BME280;11789;53.482;9.862;2023-05-07T10:45:33;102360.69;;;10.88;89.76
23241;BME280;11789;53.482;9.862;2023-05-07T10:50:39;102352.88;;;10.85;87.37
23241;BME280;11789;53.482;9.862;2023-05-07T10:53:25;102353.91;;;10.95;88.54
23241;BME280;11789;53.482;9.862;2023-05-07T10:58:42;102363.56;;;11.02;86.59
23241;BME280;11789;53.482;9.862;2023-05-07T11:01:09;102359.13;;;10.96;85.83
23241;BME280;11789;53.482;9.862;2023-05-07T11:04:13;102354.75;;;10.94;86.41
23241;BME280;11789;53.482;9.862;2023-05-07T11:06:39;102366.16;;;11.02;86.57
23241;BME280;11789;53.482;9.862;2023-05-07T11:09:05;102353.97;;;10.96;86.21
23241;BME280;11789;53.482;9.862;2023-05-07T11:11:47;102362.69;;;11.01;86.17
23241;BME280;11789;53.482;9.862;2023-05-07T11:17:12;102355.13;;;11.10;86.41
23241;BME280;11789;53.482;9.862;2023-05-07T11:19:51;102361.22;;;11.14;85.79
23241;BME280;11789;53.482;9.862;2023-05-07T11:25:07;102368.44;;;11.29;85.00
23241;BME280;11789;53.482;9.862;2023-05-07T11:27:34;102361.53;;;11.28;84.12
23241;BME280;11789;53.482;9.862;2023-05-07T11:30:03;102360.56;;;11.24;84.46
23241;BME280;11789;53.482;9.862;2023-05-07T11:32:31;102354.59;;;11.27;84.80
23241;BME280;11789;53.482;9.862;2023-05-07T11:35:00;102354.66;;;11.30;83.60
23241;BME280;11789;53.482;9.862;2023-05-07T11:37:27;102364.97;;;11.27;83.81
23241;BME280;11789;53.482;9.862;2023-05-07T11:40:07;102355.66;;;11.36;84.58
23241;BME280;11789;53.482;9.862;2023-05-07T11:42:37;102354.25;;;11.54;84.78
23241;BME280;11789;53.482;9.862;2023-05-07T11:45:05;102351.84;;;11.61;84.10
23241;BME280;11789;53.482;9.862;2023-05-07T11:47:31;102352.72;;;11.63;82.84
23241;BME280;11789;53.482;9.862;2023-05-07T11:50:02;102349.16;;;11.58;82.15
23241;BME280;11789;53.482;9.862;2023-05-07T11:52:28;102337.28;;;11.69;83.01
23241;BME280;11789;53.482;9.862;2023-05-07T11:54:56;102337.56;;;11.83;83.26
23241;BME280;11789;53.482;9.862;2023-05-07T11:57:25;102346.19;;;11.82;82.13
23241;BME280;11789;53.482;9.862;2023-05-07T11:59:55;102341.59;;;11.67;82.34
23241;BME280;11789;53.482;9.862;2023-05-07T12:02:20;102351.75;;;11.58;82.57
23241;BME280;11789;53.482;9.862;2023-05-07T12:04:46;102346.59;;;11.58;83.78
23241;BME280;11789;53.482;9.862;2023-05-07T12:07:15;102335.44;;;11.61;82.89
23241;BME280;11789;53.482;9.862;2023-05-07T12:09:45;102344.38;;;11.78;83.23
23241;BME280;11789;53.482;9.862;2023-05-07T12:12:11;102342.06;;;11.92;81.18
23241;BME280;11789;53.482;9.862;2023-05-07T12:14:42;102350.78;;;11.97;80.26
23241;BME280;11789;53.482;9.862;2023-05-07T12:17:08;102342.94;;;11.92;81.42
23241;BME280;11789;53.482;9.862;2023-05-07T12:19:38;102347.59;;;12.13;81.97
23241;BME280;11789;53.482;9.862;2023-05-07T12:22:04;102345.97;;;12.20;79.98
23241;BME280;11789;53.482;9.862;2023-05-07T12:24:44;102345.81;;;12.11;80.02
23241;BME280;11789;53.482;9.862;2023-05-07T12:27:10;102349.28;;;12.11;79.91
23241;BME280;11789;53.482;9.862;2023-05-07T12:29:35;102331.19;;;12.16;80.44
23241;BME280;11789;53.482;9.862;2023-05-07T12:32:02;102352.19;;;12.30;79.28
23241;BME280;11789;53.482;9.862;2023-05-07T12:34:28;102337.66;;;12.41;78.75
23241;BME280;11789;53.482;9.862;2023-05-07T12:36:54;102346.50;;;12.52;78.02
23241;BME280;11789;53.482;9.862;2023-05-07T12:39:20;102334.63;;;12.71;77.74
23241;BME280;11789;53.482;9.862;2023-05-07T12:41:55;102341.56;;;12.72;77.04
23241;BME280;11789;53.482;9.862;2023-05-07T12:44:32;102341.87;;;12.95;76.37
23241;BME280;11789;53.482;9.862;2023-05-07T12:47:02;102341.09;;;13.01;76.22
23241;BME280;11789;53.482;9.862;2023-05-07T12:49:28;102332.78;;;13.28;76.12
23241;BME280;11789;53.482;9.862;2023-05-07T12:51:54;102339.75;;;13.29;74.16
23241;BME280;11789;53.482;9.862;2023-05-07T12:54:37;102340.38;;;13.12;74.92
23241;BME280;11789;53.482;9.862;2023-05-07T12:57:04;102343.94;;;13.20;74.90
23241;BME280;11789;53.482;9.862;2023-05-07T12:59:41;102334.41;;;13.18;74.57